sensor_id;sensor_type;location;lat;lon;timestamp;P1;durP1;ratioP1;P2;durP2;ratioP2
42332;SDS011;27984;51.476;5.702;2024-01-25T00:01:50;41.20;;;6.88;;
42332;SDS011;27984;51.476;5.702;2024-01-25T00:04:16;51.08;;;6.85;;
42332;SDS011;27984;51.476;5.702;2024-01-25T00:06:42;43.78;;;6.60;;
42332;SDS011;27984;51.476;5.702;2024-01-25T00:09:08;45.33;;;6.80;;
42332;SDS011;27984;51.476;5.702;2024-01-25T00:11:34;52.25;;;6.72;;
42332;SDS011;27984;51.476;5.702;2024-01-25T00:14:00;40.50;;;7.25;;
42332;SDS011;27984;51.476;5.702;2024-01-25T00:16:27;43.28;;;6.60;;
42332;SDS011;27984;51.476;5.702;2024-01-25T00:18:53;48.72;;;7.25;;
42332;SDS011;27984;51.476;5.702;2024-01-25T00:21:19;44.63;;;7.10;;
42332;SDS011;27984;51.476;5.702;2024-01-25T00:23:45;48.20;;;6.68;;
42332;SDS011;27984;51.476;5.702;2024-01-25T00:26:11;41.42;;;6.65;;
42332;SDS011;27984;51.476;5.702;2024-01-25T00:28:37;46.88;;;7.20;;
42332;SDS011;27984;51.476;5.702;2024-01-25T00:31:03;47.90;;;7.13;;
42332;SDS011;27984;51.476;5.702;2024-01-25T00:33:29;45.03;;;7.57;;
42332;SDS011;27984;51.476;5.702;2024-01-25T00:35:55;48.03;;;7.78;;
42332;SDS011;27984;51.476;5.702;2024-01-25T00:38:21;42.22;;;6.75;;
42332;SDS011;27984;51.476;5.702;2024-01-25T00:40:47;56.58;;;7.72;;
42332;SDS011;27984;51.476;5.702;2024-01-25T00:43:13;44.53;;;7.10;;
42332;SDS011;27984;51.476;5.702;2024-01-25T00:45:40;50.53;;;7.07;;
42332;SDS011;27984;51.476;5.702;2024-01-25T00:48:06;49.10;;;7.60;;
42332;SDS011;27984;51.476;5.702;2024-01-25T00:50:32;50.17;;;6.93;;
42332;SDS011;27984;51.476;5.702;2024-01-25T00:52:59;43.50;;;7.13;;
42332;SDS011;27984;51.476;5.702;2024-01-25T00:55:25;49.47;;;7.82;;
42332;SDS011;27984;51.476;5.702;2024-01-25T00:57:51;53.30;;;7.35;;
42332;SDS011;27984;51.476;5.702;2024-01-25T01:00:17;46.42;;;6.35;;
42332;SDS011;27984;51.476;5.702;2024-01-25T01:02:43;50.88;;;7.40;;
42332;SDS011;27984;51.476;5.702;2024-01-25T01:05:10;51.55;;;7.22;;
42332;SDS011;27984;51.476;5.702;2024-01-25T01:07:36;43.65;;;7.35;;
42332;SDS011;27984;51.476;5.702;2024-01-25T01:10:03;39.97;;;6.63;;
42332;SDS011;27984;51.476;5.702;2024-01-25T01:12:30;51.92;;;7.22;;
42332;SDS011;27984;51.476;5.702;2024-01-25T01:14:56;47.30;;;7.00;;
42332;SDS011;27984;51.476;5.702;2024-01-25T01:17:22;52.97;;;7.68;;
42332;SDS011;27984;51.476;5.702;2024-01-25T01:19:48;42.00;;;7.88;;
42332;SDS011;27984;51.476;5.702;2024-01-25T01:22:14;57.05;;;6.93;;
42332;SDS011;27984;51.476;5.702;2024-01-25T01:24:40;52.97;;;8.05;;
42332;SDS011;27984;51.476;5.702;2024-01-25T01:27:06;43.47;;;7.25;;
42332;SDS011;27984;51.476;5.702;2024-01-25T01:29:32;55.50;;;6.95;;
42332;SDS011;27984;51.476;5.702;2024-01-25T01:31:58;52.75;;;7.38;;
42332;SDS011;27984;51.476;5.702;2024-01-25T01:34:24;45.63;;;6.95;;
42332;SDS011;27984;51.476;5.702;2024-01-25T01:36:49;50.00;;;7.28;;
42332;SDS011;27984;51.476;5.702;2024-01-25T01:39:15;56.53;;;7.15;;
42332;SDS011;27984;51.476;5.702;2024-01-25T01:41:41;54.83;;;7.45;;
42332;SDS011;27984;51.476;5.702;2024-01-25T01:44:07;54.00;;;7.32;;
42332;SDS011;27984;51.476;5.702;2024-01-25T01:46:34;53.22;;;7.72;;
42332;SDS011;27984;51.476;5.702;2024-01-25T01:49:02;52.47;;;7.60;;
42332;SDS011;27984;51.476;5.702;2024-01-25T01:51:28;60.88;;;7.63;;
42332;SDS011;27984;51.476;5.702;2024-01-25T01:53:54;55.08;;;8.02;;
42332;SDS011;27984;51.476;5.702;2024-01-25T01:56:20;47.40;;;6.78;;
42332;SDS011;27984;51.476;5.702;2024-01-25T01:58:47;55.78;;;6.57;;
42332;SDS011;27984;51.476;5.702;2024-01-25T02:01:13;60.25;;;7.75;;
42332;SDS011;27984;51.476;5.702;2024-01-25T02:03:39;49.13;;;6.57;;
42332;SDS011;27984;51.476;5.702;2024-01-25T02:06:06;54.72;;;7.50;;
42332;SDS011;27984;51.476;5.702;2024-01-25T02:08:32;51.97;;;7.53;;
42332;SDS011;27984;51.476;5.702;2024-01-25T02:10:58;51.50;;;8.57;;
42332;SDS011;27984;51.476;5.702;2024-01-25T02:13:24;44.20;;;6.75;;
42332;SDS011;27984;51.476;5.702;2024-01-25T02:15:50;56.60;;;7.55;;
42332;SDS011;27984;51.476;5.702;2024-01-25T02:18:16;50.05;;;7.32;;
42332;SDS011;27984;51.476;5.702;2024-01-25T02:20:42;48.17;;;7.20;;
42332;SDS011;27984;51.476;5.702;2024-01-25T02:23:07;53.42;;;8.88;;
42332;SDS011;27984;51.476;5.702;2024-01-25T02:25:33;49.60;;;7.00;;
42332;SDS011;27984;51.476;5.702;2024-01-25T02:27:59;57.65;;;7.63;;
42332;SDS011;27984;51.476;5.702;2024-01-25T02:30:25;63.40;;;8.05;;
42332;SDS011;27984;51.476;5.702;2024-01-25T02:32:51;58.35;;;6.97;;
42332;SDS011;27984;51.476;5.702;2024-01-25T02:35:17;62.83;;;8.40;;
42332;SDS011;27984;51.476;5.702;2024-01-25T02:37:43;58.85;;;8.35;;
42332;SDS011;27984;51.476;5.702;2024-01-25T02:40:10;55.90;;;7.05;;
42332;SDS011;27984;51.476;5.702;2024-01-25T02:42:36;60.20;;;8.15;;
42332;SDS011;27984;51.476;5.702;2024-01-25T02:45:02;56.95;;;7.28;;
42332;SDS011;27984;51.476;5.702;2024-01-25T02:47:28;57.63;;;7.30;;
42332;SDS011;27984;51.476;5.702;2024-01-25T02:49:54;57.58;;;7.57;;
42332;SDS011;27984;51.476;5.702;2024-01-25T02:52:20;53.42;;;7.43;;
42332;SDS011;27984;51.476;5.702;2024-01-25T02:54:46;58.67;;;7.72;;
42332;SDS011;27984;51.476;5.702;2024-01-25T02:57:12;49.80;;;7.43;;
42332;SDS011;27984;51.476;5.702;2024-01-25T02:59:38;56.30;;;7.97;;
42332;SDS011;27984;51.476;5.702;2024-01-25T03:02:04;60.20;;;8.48;;
42332;SDS011;27984;51.476;5.702;2024-01-25T03:04:29;55.53;;;7.93;;
42332;SDS011;27984;51.476;5.702;2024-01-25T03:06:55;64.32;;;8.10;;
42332;SDS011;27984;51.476;5.702;2024-01-25T03:09:21;48.58;;;6.85;;
42332;SDS011;27984;51.476;5.702;2024-01-25T03:11:48;60.95;;;7.68;;
42332;SDS011;27984;51.476;5.702;2024-01-25T03:14:15;67.22;;;7.78;;
42332;SDS011;27984;51.476;5.702;2024-01-25T03:16:41;59.67;;;7.72;;
42332;SDS011;27984;51.476;5.702;2024-01-25T03:19:08;59.47;;;7.40;;
42332;SDS011;27984;51.476;5.702;2024-01-25T03:21:34;56.83;;;7.43;;
42332;SDS011;27984;51.476;5.702;2024-01-25T03:24:00;60.60;;;8.15;;
42332;SDS011;27984;51.476;5.702;2024-01-25T03:26:29;68.00;;;8.07;;
42332;SDS011;27984;51.476;5.702;2024-01-25T03:28:55;59.55;;;7.28;;
42332;SDS011;27984;51.476;5.702;2024-01-25T03:31:20;66.53;;;8.02;;
42332;SDS011;27984;51.476;5.702;2024-01-25T03:33:46;54.30;;;7.20;;
42332;SDS011;27984;51.476;5.702;2024-01-25T03:36:15;51.70;;;7.72;;
42332;SDS011;27984;51.476;5.702;2024-01-25T03:38:41;54.00;;;7.32;;
42332;SDS011;27984;51.476;5.702;2024-01-25T03:41:08;57.90;;;7.70;;
42332;SDS011;27984;51.476;5.702;2024-01-25T03:43:34;50.05;;;7.28;;
42332;SDS011;27984;51.476;5.702;2024-01-25T03:46:00;55.97;;;6.97;;
42332;SDS011;27984;51.476;5.702;2024-01-25T03:48:27;53.05;;;7.70;;
42332;SDS011;27984;51.476;5.702;2024-01-25T03:50:53;53.38;;;6.55;;
42332;SDS011;27984;51.476;5.702;2024-01-25T03:53:22;55.45;;;7.03;;
42332;SDS011;27984;51.476;5.702;2024-01-25T03:55:48;49.03;;;6.30;;
42332;SDS011;27984;51.476;5.702;2024-01-25T03:58:15;53.72;;;6.85;;
42332;SDS011;27984;51.476;5.702;2024-01-25T04:00:41;59.88;;;7.78;;
42332;SDS011;27984;51.476;5.702;2024-01-25T04:03:07;50.63;;;6.85;;
42332;SDS011;27984;51.476;5.702;2024-01-25T04:05:33;47.55;;;7.18;;
42332;SDS011;27984;51.476;5.702;2024-01-25T04:07:59;37.53;;;6.00;;
42332;SDS011;27984;51.476;5.702;2024-01-25T04:10:25;40.15;;;5.88;;
42332;SDS011;27984;51.476;5.702;2024-01-25T04:12:51;49.00;;;6.50;;
42332;SDS011;27984;51.476;5.702;2024-01-25T04:15:17;46.67;;;6.82;;
42332;SDS011;27984;51.476;5.702;2024-01-25T04:17:43;48.60;;;7.18;;
42332;SDS011;27984;51.476;5.702;2024-01-25T04:20:09;45.00;;;6.75;;
42332;SDS011;27984;51.476;5.702;2024-01-25T04:22:36;47.20;;;7.22;;
42332;SDS011;27984;51.476;5.702;2024-01-25T04:25:02;52.15;;;7.72;;
42332;SDS011;27984;51.476;5.702;2024-01-25T04:27:28;49.90;;;8.05;;
42332;SDS011;27984;51.476;5.702;2024-01-25T04:29:54;49.03;;;6.82;;
42332;SDS011;27984;51.476;5.702;2024-01-25T04:32:20;50.75;;;7.63;;
42332;SDS011;27984;51.476;5.702;2024-01-25T04:34:46;53.92;;;7.75;;
42332;SDS011;27984;51.476;5.702;2024-01-25T04:37:13;51.97;;;7.78;;
42332;SDS011;27984;51.476;5.702;2024-01-25T04:39:39;50.90;;;7.70;;
42332;SDS011;27984;51.476;5.702;2024-01-25T04:42:05;55.95;;;7.40;;
42332;SDS011;27984;51.476;5.702;2024-01-25T04:44:31;57.63;;;6.88;;
42332;SDS011;27984;51.476;5.702;2024-01-25T04:46:57;45.33;;;6.97;;
42332;SDS011;27984;51.476;5.702;2024-01-25T04:49:23;53.40;;;7.85;;
42332;SDS011;27984;51.476;5.702;2024-01-25T04:51:50;56.67;;;7.22;;
42332;SDS011;27984;51.476;5.702;2024-01-25T04:54:16;58.22;;;7.15;;
42332;SDS011;27984;51.476;5.702;2024-01-25T04:56:42;50.38;;;6.90;;
42332;SDS011;27984;51.476;5.702;2024-01-25T04:59:08;54.25;;;7.75;;
42332;SDS011;27984;51.476;5.702;2024-01-25T05:01:34;55.53;;;6.82;;
42332;SDS011;27984;51.476;5.702;2024-01-25T05:04:00;55.17;;;7.40;;
42332;SDS011;27984;51.476;5.702;2024-01-25T05:06:26;53.67;;;7.28;;
42332;SDS011;27984;51.476;5.702;2024-01-25T05:08:52;60.08;;;7.75;;
42332;SDS011;27984;51.476;5.702;2024-01-25T05:11:18;51.95;;;7.72;;
42332;SDS011;27984;51.476;5.702;2024-01-25T05:13:44;54.08;;;7.22;;
42332;SDS011;27984;51.476;5.702;2024-01-25T05:16:10;54.47;;;7.25;;
42332;SDS011;27984;51.476;5.702;2024-01-25T05:18:36;53.33;;;6.65;;
42332;SDS011;27984;51.476;5.702;2024-01-25T05:21:02;58.22;;;7.65;;
42332;SDS011;27984;51.476;5.702;2024-01-25T05:23:28;52.00;;;8.25;;
42332;SDS011;27984;51.476;5.702;2024-01-25T05:25:54;50.53;;;7.95;;
42332;SDS011;27984;51.476;5.702;2024-01-25T05:28:20;54.95;;;7.35;;
42332;SDS011;27984;51.476;5.702;2024-01-25T05:30:46;59.35;;;7.28;;
42332;SDS011;27984;51.476;5.702;2024-01-25T05:33:12;53.42;;;7.63;;
42332;SDS011;27984;51.476;5.702;2024-01-25T05:35:38;58.20;;;7.35;;
42332;SDS011;27984;51.476;5.702;2024-01-25T05:38:04;53.67;;;6.55;;
42332;SDS011;27984;51.476;5.702;2024-01-25T05:40:30;54.97;;;8.25;;
42332;SDS011;27984;51.476;5.702;2024-01-25T05:42:56;65.85;;;7.60;;
42332;SDS011;27984;51.476;5.702;2024-01-25T05:45:22;48.85;;;7.25;;
42332;SDS011;27984;51.476;5.702;2024-01-25T05:47:49;57.70;;;7.75;;
42332;SDS011;27984;51.476;5.702;2024-01-25T05:50:15;54.53;;;7.68;;
42332;SDS011;27984;51.476;5.702;2024-01-25T05:52:42;51.85;;;7.45;;
42332;SDS011;27984;51.476;5.702;2024-01-25T05:55:08;42.58;;;7.50;;
42332;SDS011;27984;51.476;5.702;2024-01-25T05:57:35;57.80;;;8.18;;
42332;SDS011;27984;51.476;5.702;2024-01-25T06:00:01;53.58;;;7.80;;
42332;SDS011;27984;51.476;5.702;2024-01-25T06:02:27;57.15;;;7.63;;
42332;SDS011;27984;51.476;5.702;2024-01-25T06:04:53;56.50;;;8.00;;
42332;SDS011;27984;51.476;5.702;2024-01-25T06:07:23;52.25;;;7.45;;
42332;SDS011;27984;51.476;5.702;2024-01-25T06:09:49;52.25;;;7.95;;
42332;SDS011;27984;51.476;5.702;2024-01-25T06:12:15;55.70;;;8.48;;
42332;SDS011;27984;51.476;5.702;2024-01-25T06:14:41;43.83;;;7.38;;
42332;SDS011;27984;51.476;5.702;2024-01-25T06:17:08;55.75;;;7.85;;
42332;SDS011;27984;51.476;5.702;2024-01-25T06:19:33;61.90;;;7.85;;
42332;SDS011;27984;51.476;5.702;2024-01-25T06:22:00;56.22;;;8.10;;
42332;SDS011;27984;51.476;5.702;2024-01-25T06:24:26;51.50;;;7.65;;
42332;SDS011;27984;51.476;5.702;2024-01-25T06:26:52;48.65;;;7.88;;
42332;SDS011;27984;51.476;5.702;2024-01-25T06:29:18;49.20;;;8.07;;
42332;SDS011;27984;51.476;5.702;2024-01-25T06:31:44;43.97;;;7.18;;
42332;SDS011;27984;51.476;5.702;2024-01-25T06:34:11;48.28;;;7.68;;
42332;SDS011;27984;51.476;5.702;2024-01-25T06:36:37;48.45;;;8.25;;
42332;SDS011;27984;51.476;5.702;2024-01-25T06:39:03;42.53;;;7.22;;
42332;SDS011;27984;51.476;5.702;2024-01-25T06:41:32;39.45;;;7.13;;
42332;SDS011;27984;51.476;5.702;2024-01-25T06:43:58;51.20;;;7.63;;
42332;SDS011;27984;51.476;5.702;2024-01-25T06:46:24;40.08;;;7.60;;
42332;SDS011;27984;51.476;5.702;2024-01-25T06:48:50;46.42;;;7.82;;
42332;SDS011;27984;51.476;5.702;2024-01-25T06:51:16;41.88;;;6.93;;
42332;SDS011;27984;51.476;5.702;2024-01-25T06:53:42;47.83;;;8.48;;
42332;SDS011;27984;51.476;5.702;2024-01-25T06:56:09;47.63;;;7.43;;
42332;SDS011;27984;51.476;5.702;2024-01-25T06:58:35;54.25;;;8.23;;
42332;SDS011;27984;51.476;5.702;2024-01-25T07:01:01;49.05;;;8.55;;
42332;SDS011;27984;51.476;5.702;2024-01-25T07:03:29;50.33;;;8.02;;
42332;SDS011;27984;51.476;5.702;2024-01-25T07:05:55;41.38;;;7.40;;
42332;SDS011;27984;51.476;5.702;2024-01-25T07:08:21;48.42;;;7.88;;
42332;SDS011;27984;51.476;5.702;2024-01-25T07:10:49;36.97;;;7.95;;
42332;SDS011;27984;51.476;5.702;2024-01-25T07:13:14;46.15;;;7.97;;
42332;SDS011;27984;51.476;5.702;2024-01-25T07:15:41;53.28;;;7.72;;
42332;SDS011;27984;51.476;5.702;2024-01-25T07:18:07;45.10;;;7.75;;
42332;SDS011;27984;51.476;5.702;2024-01-25T07:20:33;53.70;;;8.35;;
42332;SDS011;27984;51.476;5.702;2024-01-25T07:22:59;51.10;;;8.63;;
42332;SDS011;27984;51.476;5.702;2024-01-25T07:25:25;50.63;;;9.25;;
42332;SDS011;27984;51.476;5.702;2024-01-25T07:27:51;49.90;;;8.85;;
42332;SDS011;27984;51.476;5.702;2024-01-25T07:30:17;42.53;;;8.48;;
42332;SDS011;27984;51.476;5.702;2024-01-25T07:32:43;47.50;;;10.02;;
42332;SDS011;27984;51.476;5.702;2024-01-25T07:35:11;46.90;;;9.73;;
42332;SDS011;27984;51.476;5.702;2024-01-25T07:37:37;43.08;;;8.50;;
42332;SDS011;27984;51.476;5.702;2024-01-25T07:40:03;54.72;;;9.63;;
42332;SDS011;27984;51.476;5.702;2024-01-25T07:42:29;51.55;;;10.15;;
42332;SDS011;27984;51.476;5.702;2024-01-25T07:44:55;49.17;;;9.05;;
42332;SDS011;27984;51.476;5.702;2024-01-25T07:47:21;51.85;;;10.27;;
42332;SDS011;27984;51.476;5.702;2024-01-25T07:49:48;50.75;;;10.63;;
42332;SDS011;27984;51.476;5.702;2024-01-25T07:52:14;55.65;;;11.25;;
42332;SDS011;27984;51.476;5.702;2024-01-25T07:54:40;62.15;;;11.90;;
42332;SDS011;27984;51.476;5.702;2024-01-25T07:57:06;71.53;;;11.60;;
42332;SDS011;27984;51.476;5.702;2024-01-25T07:59:32;57.92;;;10.35;;
42332;SDS011;27984;51.476;5.702;2024-01-25T08:01:58;52.60;;;9.82;;
42332;SDS011;27984;51.476;5.702;2024-01-25T08:04:24;66.22;;;10.25;;
42332;SDS011;27984;51.476;5.702;2024-01-25T08:06:51;52.22;;;9.07;;
42332;SDS011;27984;51.476;5.702;2024-01-25T08:09:17;49.35;;;9.15;;
42332;SDS011;27984;51.476;5.702;2024-01-25T08:11:43;65.18;;;9.60;;
42332;SDS011;27984;51.476;5.702;2024-01-25T08:14:10;55.60;;;9.60;;
42332;SDS011;27984;51.476;5.702;2024-01-25T08:16:38;52.40;;;9.57;;
42332;SDS011;27984;51.476;5.702;2024-01-25T08:19:04;56.30;;;9.70;;
42332;SDS011;27984;51.476;5.702;2024-01-25T08:21:30;63.83;;;9.85;;
42332;SDS011;27984;51.476;5.702;2024-01-25T08:23:56;56.17;;;9.43;;
42332;SDS011;27984;51.476;5.702;2024-01-25T08:26:22;51.40;;;9.57;;
42332;SDS011;27984;51.476;5.702;2024-01-25T08:28:48;63.60;;;11.10;;
42332;SDS011;27984;51.476;5.702;2024-01-25T08:31:14;51.53;;;10.55;;
42332;SDS011;27984;51.476;5.702;2024-01-25T08:33:40;66.38;;;11.20;;
42332;SDS011;27984;51.476;5.702;2024-01-25T08:36:08;51.55;;;11.05;;
42332;SDS011;27984;51.476;5.702;2024-01-25T08:38:34;56.28;;;11.60;;
42332;SDS011;27984;51.476;5.702;2024-01-25T08:41:01;56.03;;;12.63;;
42332;SDS011;27984;51.476;5.702;2024-01-25T08:43:27;55.65;;;11.77;;
42332;SDS011;27984;51.476;5.702;2024-01-25T08:45:52;62.25;;;12.75;;
42332;SDS011;27984;51.476;5.702;2024-01-25T08:48:18;73.15;;;12.65;;
42332;SDS011;27984;51.476;5.702;2024-01-25T08:50:45;53.55;;;13.10;;
42332;SDS011;27984;51.476;5.702;2024-01-25T08:53:11;62.10;;;13.02;;
42332;SDS011;27984;51.476;5.702;2024-01-25T08:55:36;67.07;;;12.85;;
42332;SDS011;27984;51.476;5.702;2024-01-25T08:58:02;69.68;;;14.13;;
42332;SDS011;27984;51.476;5.702;2024-01-25T09:00:28;57.50;;;13.93;;
42332;SDS011;27984;51.476;5.702;2024-01-25T09:02:54;78.85;;;14.32;;
42332;SDS011;27984;51.476;5.702;2024-01-25T09:05:21;65.40;;;14.10;;
42332;SDS011;27984;51.476;5.702;2024-01-25T09:07:47;56.97;;;13.63;;
42332;SDS011;27984;51.476;5.702;2024-01-25T09:10:15;62.60;;;15.95;;
42332;SDS011;27984;51.476;5.702;2024-01-25T09:12:41;57.67;;;15.00;;
42332;SDS011;27984;51.476;5.702;2024-01-25T09:15:07;52.83;;;15.38;;
42332;SDS011;27984;51.476;5.702;2024-01-25T09:17:33;57.53;;;15.95;;
42332;SDS011;27984;51.476;5.702;2024-01-25T09:19:59;56.47;;;16.38;;
42332;SDS011;27984;51.476;5.702;2024-01-25T09:22:25;51.10;;;15.90;;
42332;SDS011;27984;51.476;5.702;2024-01-25T09:24:52;49.50;;;17.08;;
42332;SDS011;27984;51.476;5.702;2024-01-25T09:27:18;51.03;;;16.80;;
42332;SDS011;27984;51.476;5.702;2024-01-25T09:29:44;59.58;;;17.50;;
42332;SDS011;27984;51.476;5.702;2024-01-25T09:32:10;45.53;;;16.02;;
42332;SDS011;27984;51.476;5.702;2024-01-25T09:34:36;50.83;;;17.77;;
42332;SDS011;27984;51.476;5.702;2024-01-25T09:37:02;45.58;;;16.10;;
42332;SDS011;27984;51.476;5.702;2024-01-25T09:39:29;46.08;;;16.95;;
42332;SDS011;27984;51.476;5.702;2024-01-25T09:41:54;47.28;;;18.65;;
42332;SDS011;27984;51.476;5.702;2024-01-25T09:44:21;47.83;;;16.80;;
42332;SDS011;27984;51.476;5.702;2024-01-25T09:46:47;48.78;;;17.77;;
42332;SDS011;27984;51.476;5.702;2024-01-25T09:49:13;46.20;;;18.17;;
42332;SDS011;27984;51.476;5.702;2024-01-25T09:51:40;45.80;;;17.50;;
42332;SDS011;27984;51.476;5.702;2024-01-25T09:54:06;44.45;;;17.48;;
42332;SDS011;27984;51.476;5.702;2024-01-25T09:56:32;47.80;;;18.30;;
42332;SDS011;27984;51.476;5.702;2024-01-25T09:58:59;47.65;;;18.02;;
42332;SDS011;27984;51.476;5.702;2024-01-25T10:01:26;48.03;;;19.23;;
42332;SDS011;27984;51.476;5.702;2024-01-25T10:03:52;54.88;;;19.25;;
42332;SDS011;27984;51.476;5.702;2024-01-25T10:06:18;50.67;;;18.80;;
42332;SDS011;27984;51.476;5.702;2024-01-25T10:08:45;45.28;;;18.85;;
42332;SDS011;27984;51.476;5.702;2024-01-25T10:11:11;53.00;;;19.55;;
42332;SDS011;27984;51.476;5.702;2024-01-25T10:13:44;47.28;;;18.77;;
42332;SDS011;27984;51.476;5.702;2024-01-25T10:16:13;45.67;;;19.88;;
42332;SDS011;27984;51.476;5.702;2024-01-25T10:18:40;49.70;;;19.92;;
42332;SDS011;27984;51.476;5.702;2024-01-25T10:21:07;49.85;;;20.65;;
42332;SDS011;27984;51.476;5.702;2024-01-25T10:23:34;53.30;;;19.50;;
42332;SDS011;27984;51.476;5.702;2024-01-25T10:26:00;54.78;;;20.45;;
42332;SDS011;27984;51.476;5.702;2024-01-25T10:28:27;55.65;;;20.90;;
42332;SDS011;27984;51.476;5.702;2024-01-25T10:30:55;45.08;;;19.80;;
42332;SDS011;27984;51.476;5.702;2024-01-25T10:33:22;56.58;;;21.25;;
42332;SDS011;27984;51.476;5.702;2024-01-25T10:35:49;52.38;;;19.90;;
42332;SDS011;27984;51.476;5.702;2024-01-25T10:38:19;48.78;;;19.33;;
42332;SDS011;27984;51.476;5.702;2024-01-25T10:40:46;48.03;;;19.33;;
42332;SDS011;27984;51.476;5.702;2024-01-25T10:43:12;51.13;;;19.23;;
42332;SDS011;27984;51.476;5.702;2024-01-25T10:45:38;44.63;;;18.05;;
42332;SDS011;27984;51.476;5.702;2024-01-25T10:48:04;44.85;;;17.63;;
42332;SDS011;27984;51.476;5.702;2024-01-25T10:50:31;42.33;;;17.65;;
42332;SDS011;27984;51.476;5.702;2024-01-25T10:52:57;49.55;;;18.10;;
42332;SDS011;27984;51.476;5.702;2024-01-25T10:55:23;46.08;;;17.80;;
42332;SDS011;27984;51.476;5.702;2024-01-25T10:57:50;45.55;;;17.42;;
42332;SDS011;27984;51.476;5.702;2024-01-25T11:00:17;51.25;;;18.05;;
42332;SDS011;27984;51.476;5.702;2024-01-25T11:02:44;49.70;;;19.23;;
42332;SDS011;27984;51.476;5.702;2024-01-25T11:07:46;52.55;;;21.23;;
42332;SDS011;27984;51.476;5.702;2024-01-25T11:10:16;61.22;;;21.80;;
42332;SDS011;27984;51.476;5.702;2024-01-25T11:12:56;57.53;;;22.88;;
42332;SDS011;27984;51.476;5.702;2024-01-25T11:15:23;48.38;;;21.00;;
42332;SDS011;27984;51.476;5.702;2024-01-25T11:17:53;55.30;;;21.33;;
42332;SDS011;27984;51.476;5.702;2024-01-25T11:20:20;57.95;;;22.50;;
42332;SDS011;27984;51.476;5.702;2024-01-25T11:22:46;52.50;;;22.17;;
42332;SDS011;27984;51.476;5.702;2024-01-25T11:25:13;58.10;;;23.33;;
42332;SDS011;27984;51.476;5.702;2024-01-25T11:27:42;61.45;;;24.88;;
42332;SDS011;27984;51.476;5.702;2024-01-25T11:30:08;65.18;;;24.52;;
42332;SDS011;27984;51.476;5.702;2024-01-25T11:32:35;64.18;;;24.52;;
42332;SDS011;27984;51.476;5.702;2024-01-25T11:35:01;63.55;;;23.75;;
42332;SDS011;27984;51.476;5.702;2024-01-25T11:37:27;64.22;;;22.10;;
42332;SDS011;27984;51.476;5.702;2024-01-25T11:39:53;62.22;;;22.15;;
42332;SDS011;27984;51.476;5.702;2024-01-25T11:42:19;60.85;;;21.63;;
42332;SDS011;27984;51.476;5.702;2024-01-25T11:44:45;61.85;;;20.00;;
42332;SDS011;27984;51.476;5.702;2024-01-25T11:47:11;54.75;;;16.95;;
42332;SDS011;27984;51.476;5.702;2024-01-25T11:49:37;49.70;;;16.60;;
42332;SDS011;27984;51.476;5.702;2024-01-25T11:52:03;43.30;;;15.07;;
42332;SDS011;27984;51.476;5.702;2024-01-25T11:54:29;43.78;;;15.30;;
42332;SDS011;27984;51.476;5.702;2024-01-25T11:56:55;48.60;;;16.92;;
42332;SDS011;27984;51.476;5.702;2024-01-25T11:59:21;46.97;;;16.60;;
42332;SDS011;27984;51.476;5.702;2024-01-25T12:01:47;36.95;;;14.73;;
42332;SDS011;27984;51.476;5.702;2024-01-25T12:04:14;46.40;;;15.98;;
42332;SDS011;27984;51.476;5.702;2024-01-25T12:06:40;48.05;;;16.27;;
42332;SDS011;27984;51.476;5.702;2024-01-25T12:09:09;51.03;;;16.17;;
42332;SDS011;27984;51.476;5.702;2024-01-25T12:11:35;50.05;;;16.48;;
42332;SDS011;27984;51.476;5.702;2024-01-25T12:14:01;46.97;;;16.38;;
42332;SDS011;27984;51.476;5.702;2024-01-25T12:16:27;50.10;;;15.75;;
42332;SDS011;27984;51.476;5.702;2024-01-25T12:18:53;41.35;;;15.73;;
42332;SDS011;27984;51.476;5.702;2024-01-25T12:21:19;51.80;;;16.80;;
42332;SDS011;27984;51.476;5.702;2024-01-25T12:23:45;51.35;;;17.08;;
42332;SDS011;27984;51.476;5.702;2024-01-25T12:26:11;59.05;;;20.35;;
42332;SDS011;27984;51.476;5.702;2024-01-25T12:28:37;56.15;;;19.77;;
42332;SDS011;27984;51.476;5.702;2024-01-25T12:31:04;55.17;;;18.73;;
42332;SDS011;27984;51.476;5.702;2024-01-25T12:33:30;56.58;;;21.20;;
42332;SDS011;27984;51.476;5.702;2024-01-25T12:35:57;57.63;;;21.77;;
42332;SDS011;27984;51.476;5.702;2024-01-25T12:38:23;57.13;;;20.35;;
42332;SDS011;27984;51.476;5.702;2024-01-25T12:40:50;60.22;;;19.73;;
42332;SDS011;27984;51.476;5.702;2024-01-25T12:43:17;51.50;;;18.38;;
42332;SDS011;27984;51.476;5.702;2024-01-25T12:45:43;48.63;;;17.38;;
42332;SDS011;27984;51.476;5.702;2024-01-25T12:48:09;52.50;;;16.65;;
42332;SDS011;27984;51.476;5.702;2024-01-25T12:50:36;44.90;;;14.95;;
42332;SDS011;27984;51.476;5.702;2024-01-25T12:53:02;41.05;;;14.70;;
42332;SDS011;27984;51.476;5.702;2024-01-25T12:55:28;46.05;;;15.57;;
42332;SDS011;27984;51.476;5.702;2024-01-25T12:57:55;42.15;;;15.73;;
42332;SDS011;27984;51.476;5.702;2024-01-25T13:00:21;47.50;;;16.13;;
42332;SDS011;27984;51.476;5.702;2024-01-25T13:02:47;50.70;;;16.17;;
42332;SDS011;27984;51.476;5.702;2024-01-25T13:05:14;37.42;;;15.50;;
42332;SDS011;27984;51.476;5.702;2024-01-25T13:07:40;44.22;;;16.10;;
42332;SDS011;27984;51.476;5.702;2024-01-25T13:10:06;43.42;;;15.60;;
42332;SDS011;27984;51.476;5.702;2024-01-25T13:12:32;43.38;;;15.18;;
42332;SDS011;27984;51.476;5.702;2024-01-25T13:14:59;43.28;;;15.85;;
42332;SDS011;27984;51.476;5.702;2024-01-25T13:17:25;44.72;;;15.38;;
42332;SDS011;27984;51.476;5.702;2024-01-25T13:19:52;45.58;;;16.73;;
42332;SDS011;27984;51.476;5.702;2024-01-25T13:22:18;50.97;;;16.85;;
42332;SDS011;27984;51.476;5.702;2024-01-25T13:24:46;47.90;;;15.50;;
42332;SDS011;27984;51.476;5.702;2024-01-25T13:27:12;47.03;;;16.02;;
42332;SDS011;27984;51.476;5.702;2024-01-25T13:29:38;48.03;;;16.25;;
42332;SDS011;27984;51.476;5.702;2024-01-25T13:32:04;44.67;;;16.63;;
42332;SDS011;27984;51.476;5.702;2024-01-25T13:34:30;44.95;;;17.10;;
42332;SDS011;27984;51.476;5.702;2024-01-25T13:36:56;49.83;;;16.80;;
42332;SDS011;27984;51.476;5.702;2024-01-25T13:39:22;54.15;;;18.05;;
42332;SDS011;27984;51.476;5.702;2024-01-25T13:41:48;49.75;;;16.38;;
42332;SDS011;27984;51.476;5.702;2024-01-25T13:44:15;49.60;;;17.45;;
42332;SDS011;27984;51.476;5.702;2024-01-25T13:46:41;47.95;;;16.80;;
42332;SDS011;27984;51.476;5.702;2024-01-25T13:49:07;46.53;;;17.48;;
42332;SDS011;27984;51.476;5.702;2024-01-25T13:51:33;53.60;;;18.73;;
42332;SDS011;27984;51.476;5.702;2024-01-25T13:53:59;54.38;;;18.30;;
42332;SDS011;27984;51.476;5.702;2024-01-25T13:56:25;48.83;;;18.25;;
42332;SDS011;27984;51.476;5.702;2024-01-25T13:58:51;52.92;;;19.38;;
42332;SDS011;27984;51.476;5.702;2024-01-25T14:01:17;59.53;;;20.10;;
42332;SDS011;27984;51.476;5.702;2024-01-25T14:03:43;60.35;;;19.58;;
42332;SDS011;27984;51.476;5.702;2024-01-25T14:06:09;55.40;;;19.52;;
42332;SDS011;27984;51.476;5.702;2024-01-25T14:08:35;53.25;;;18.42;;
42332;SDS011;27984;51.476;5.702;2024-01-25T14:11:02;61.33;;;19.48;;
42332;SDS011;27984;51.476;5.702;2024-01-25T14:13:28;60.65;;;19.85;;
42332;SDS011;27984;51.476;5.702;2024-01-25T14:15:54;61.13;;;18.77;;
42332;SDS011;27984;51.476;5.702;2024-01-25T14:18:21;56.92;;;19.02;;
42332;SDS011;27984;51.476;5.702;2024-01-25T14:20:47;56.67;;;20.15;;
42332;SDS011;27984;51.476;5.702;2024-01-25T14:23:13;55.72;;;18.63;;
42332;SDS011;27984;51.476;5.702;2024-01-25T14:25:39;55.72;;;19.13;;